Oran, Algeria
Current Conditions -  °F | °C
As of 1:30 PM on Friday 24 Oct 2014 (Local Time) from DAOO Reporting Station
Clear Clear  
Wind Chill: 81°   Ceiling: Unl
Heat Index: 81°   Visibility: 6mi
Dew Point: 52°   Wind: 9mph
Humidity: 37%   Direction: 350°N
Pressure: 30.03"   Gusts: NA
Location:  35.61°N, 0.57°W
Report Text: DAOO 241230Z 35008KT CAVOK 27/11 Q1017
Loading
Personal Weather Stations






























Interactive Weather Map
Tropical Storm Tracking
New forecast layout! Learn more

10-Day Weather Forecast

Advertisements
Track Severe Weather on mobile